sensor_id;sensor_type;location;lat;lon;timestamp;P1;durP1;ratioP1;P2;durP2;ratioP2
50631;SDS011;49583;45.590;-122.498;2024-01-10T00:01:25;7.30;;;2.70;;
50631;SDS011;49583;45.590;-122.498;2024-01-10T00:03:38;11.80;;;3.00;;
50631;SDS011;49583;45.590;-122.498;2024-01-10T00:05:50;9.20;;;2.10;;
50631;SDS011;49583;45.590;-122.498;2024-01-10T00:08:03;10.40;;;2.50;;
50631;SDS011;49583;45.590;-122.498;2024-01-10T00:10:16;5.60;;;1.70;;
50631;SDS011;49583;45.590;-122.498;2024-01-10T00:12:29;10.20;;;2.40;;
50631;SDS011;49583;45.590;-122.498;2024-01-10T00:14:43;11.30;;;2.70;;
50631;SDS011;49583;45.590;-122.498;2024-01-10T00:16:55;11.10;;;3.10;;
50631;SDS011;49583;45.590;-122.498;2024-01-10T00:19:09;10.20;;;4.90;;
50631;SDS011;49583;45.590;-122.498;2024-01-10T00:21:21;9.50;;;2.60;;
50631;SDS011;49583;45.590;-122.498;2024-01-10T00:23:34;17.60;;;5.30;;
50631;SDS011;49583;45.590;-122.498;2024-01-10T00:25:47;14.20;;;2.70;;
50631;SDS011;49583;45.590;-122.498;2024-01-10T00:28:00;10.10;;;1.80;;
50631;SDS011;49583;45.590;-122.498;2024-01-10T00:30:13;7.90;;;1.70;;
50631;SDS011;49583;45.590;-122.498;2024-01-10T00:32:26;3.80;;;1.50;;
50631;SDS011;49583;45.590;-122.498;2024-01-10T00:34:39;8.20;;;1.80;;
50631;SDS011;49583;45.590;-122.498;2024-01-10T00:36:52;8.10;;;2.40;;
50631;SDS011;49583;45.590;-122.498;2024-01-10T00:39:05;7.10;;;1.20;;
50631;SDS011;49583;45.590;-122.498;2024-01-10T00:41:18;7.50;;;1.70;;
50631;SDS011;49583;45.590;-122.498;2024-01-10T00:43:32;7.00;;;1.40;;
50631;SDS011;49583;45.590;-122.498;2024-01-10T00:45:45;4.30;;;1.20;;
50631;SDS011;49583;45.590;-122.498;2024-01-10T00:47:59;5.20;;;1.10;;
50631;SDS011;49583;45.590;-122.498;2024-01-10T00:50:12;5.30;;;1.40;;
50631;SDS011;49583;45.590;-122.498;2024-01-10T00:52:26;3.50;;;1.40;;
50631;SDS011;49583;45.590;-122.498;2024-01-10T00:54:39;4.40;;;1.40;;
50631;SDS011;49583;45.590;-122.498;2024-01-10T00:56:52;10.10;;;1.40;;
50631;SDS011;49583;45.590;-122.498;2024-01-10T00:59:08;5.10;;;1.20;;
50631;SDS011;49583;45.590;-122.498;2024-01-10T01:01:21;6.80;;;1.80;;
50631;SDS011;49583;45.590;-122.498;2024-01-10T01:03:34;3.40;;;1.20;;
50631;SDS011;49583;45.590;-122.498;2024-01-10T01:05:47;7.60;;;1.40;;
50631;SDS011;49583;45.590;-122.498;2024-01-10T01:08:03;12.30;;;2.10;;
50631;SDS011;49583;45.590;-122.498;2024-01-10T01:10:16;5.90;;;1.60;;
50631;SDS011;49583;45.590;-122.498;2024-01-10T01:12:31;11.40;;;2.30;;
50631;SDS011;49583;45.590;-122.498;2024-01-10T01:14:45;6.00;;;1.30;;
50631;SDS011;49583;45.590;-122.498;2024-01-10T01:16:58;8.20;;;2.20;;
50631;SDS011;49583;45.590;-122.498;2024-01-10T01:19:15;6.90;;;1.70;;
50631;SDS011;49583;45.590;-122.498;2024-01-10T01:21:28;8.10;;;2.00;;
50631;SDS011;49583;45.590;-122.498;2024-01-10T01:23:41;6.60;;;2.20;;
50631;SDS011;49583;45.590;-122.498;2024-01-10T01:25:54;6.90;;;2.00;;
50631;SDS011;49583;45.590;-122.498;2024-01-10T01:28:07;10.90;;;2.40;;
50631;SDS011;49583;45.590;-122.498;2024-01-10T01:30:22;7.90;;;2.10;;
50631;SDS011;49583;45.590;-122.498;2024-01-10T01:32:36;3.80;;;1.50;;
50631;SDS011;49583;45.590;-122.498;2024-01-10T01:34:51;7.60;;;2.00;;
50631;SDS011;49583;45.590;-122.498;2024-01-10T01:37:04;4.80;;;1.50;;
50631;SDS011;49583;45.590;-122.498;2024-01-10T01:39:18;3.90;;;1.50;;
50631;SDS011;49583;45.590;-122.498;2024-01-10T01:41:31;6.00;;;1.70;;
50631;SDS011;49583;45.590;-122.498;2024-01-10T01:43:44;7.90;;;1.50;;
50631;SDS011;49583;45.590;-122.498;2024-01-10T01:45:58;10.00;;;2.50;;
50631;SDS011;49583;45.590;-122.498;2024-01-10T01:48:12;8.70;;;2.20;;
50631;SDS011;49583;45.590;-122.498;2024-01-10T01:50:26;7.80;;;2.50;;
50631;SDS011;49583;45.590;-122.498;2024-01-10T01:52:39;10.70;;;2.00;;
50631;SDS011;49583;45.590;-122.498;2024-01-10T01:54:54;8.10;;;2.20;;
50631;SDS011;49583;45.590;-122.498;2024-01-10T01:57:07;10.50;;;2.40;;
50631;SDS011;49583;45.590;-122.498;2024-01-10T01:59:21;12.80;;;2.00;;
50631;SDS011;49583;45.590;-122.498;2024-01-10T02:01:35;8.80;;;2.30;;
50631;SDS011;49583;45.590;-122.498;2024-01-10T02:03:52;10.80;;;2.40;;
50631;SDS011;49583;45.590;-122.498;2024-01-10T02:06:06;9.40;;;2.00;;
50631;SDS011;49583;45.590;-122.498;2024-01-10T02:08:20;7.50;;;1.80;;
50631;SDS011;49583;45.590;-122.498;2024-01-10T02:10:35;7.70;;;2.10;;
50631;SDS011;49583;45.590;-122.498;2024-01-10T02:12:53;9.60;;;2.30;;
50631;SDS011;49583;45.590;-122.498;2024-01-10T02:15:11;5.80;;;2.00;;
50631;SDS011;49583;45.590;-122.498;2024-01-10T02:17:24;4.80;;;2.10;;
50631;SDS011;49583;45.590;-122.498;2024-01-10T02:19:38;7.50;;;2.30;;
50631;SDS011;49583;45.590;-122.498;2024-01-10T02:21:56;12.10;;;2.40;;
50631;SDS011;49583;45.590;-122.498;2024-01-10T02:24:10;10.90;;;2.50;;
50631;SDS011;49583;45.590;-122.498;2024-01-10T02:26:23;9.10;;;2.00;;
50631;SDS011;49583;45.590;-122.498;2024-01-10T02:28:38;8.30;;;2.80;;
50631;SDS011;49583;45.590;-122.498;2024-01-10T02:30:52;10.00;;;2.70;;
50631;SDS011;49583;45.590;-122.498;2024-01-10T02:33:09;12.20;;;3.00;;
50631;SDS011;49583;45.590;-122.498;2024-01-10T02:35:25;12.60;;;2.20;;
50631;SDS011;49583;45.590;-122.498;2024-01-10T02:37:40;13.90;;;2.60;;
50631;SDS011;49583;45.590;-122.498;2024-01-10T02:39:53;8.80;;;2.00;;
50631;SDS011;49583;45.590;-122.498;2024-01-10T02:42:08;15.50;;;3.70;;
50631;SDS011;49583;45.590;-122.498;2024-01-10T02:44:21;14.00;;;3.40;;
50631;SDS011;49583;45.590;-122.498;2024-01-10T02:46:33;10.00;;;2.30;;
50631;SDS011;49583;45.590;-122.498;2024-01-10T02:48:46;14.80;;;3.00;;
50631;SDS011;49583;45.590;-122.498;2024-01-10T02:51:01;15.10;;;2.70;;
50631;SDS011;49583;45.590;-122.498;2024-01-10T02:53:14;9.10;;;2.10;;
50631;SDS011;49583;45.590;-122.498;2024-01-10T02:55:28;10.50;;;2.60;;
50631;SDS011;49583;45.590;-122.498;2024-01-10T02:57:42;18.00;;;2.50;;
50631;SDS011;49583;45.590;-122.498;2024-01-10T02:59:58;8.70;;;2.70;;
50631;SDS011;49583;45.590;-122.498;2024-01-10T03:02:11;14.40;;;3.50;;
50631;SDS011;49583;45.590;-122.498;2024-01-10T03:04:25;10.60;;;2.70;;
50631;SDS011;49583;45.590;-122.498;2024-01-10T03:06:38;12.60;;;3.20;;
50631;SDS011;49583;45.590;-122.498;2024-01-10T03:08:54;10.30;;;2.20;;
50631;SDS011;49583;45.590;-122.498;2024-01-10T03:11:06;14.20;;;3.00;;
50631;SDS011;49583;45.590;-122.498;2024-01-10T03:13:19;12.20;;;2.80;;
50631;SDS011;49583;45.590;-122.498;2024-01-10T03:15:32;12.30;;;2.20;;
50631;SDS011;49583;45.590;-122.498;2024-01-10T03:17:45;10.10;;;2.90;;
50631;SDS011;49583;45.590;-122.498;2024-01-10T03:19:58;15.00;;;3.00;;
50631;SDS011;49583;45.590;-122.498;2024-01-10T03:22:11;17.00;;;3.00;;
50631;SDS011;49583;45.590;-122.498;2024-01-10T03:24:27;17.10;;;3.30;;
50631;SDS011;49583;45.590;-122.498;2024-01-10T03:26:40;17.30;;;3.40;;
50631;SDS011;49583;45.590;-122.498;2024-01-10T03:28:53;10.50;;;2.30;;
50631;SDS011;49583;45.590;-122.498;2024-01-10T03:31:06;13.30;;;2.60;;
50631;SDS011;49583;45.590;-122.498;2024-01-10T03:33:20;22.10;;;3.70;;
50631;SDS011;49583;45.590;-122.498;2024-01-10T03:35:34;10.20;;;3.10;;
50631;SDS011;49583;45.590;-122.498;2024-01-10T03:37:47;11.40;;;2.80;;
50631;SDS011;49583;45.590;-122.498;2024-01-10T03:40:01;13.80;;;3.20;;
50631;SDS011;49583;45.590;-122.498;2024-01-10T03:42:15;11.30;;;3.00;;
50631;SDS011;49583;45.590;-122.498;2024-01-10T03:44:27;16.00;;;3.10;;
50631;SDS011;49583;45.590;-122.498;2024-01-10T03:46:41;4.20;;;1.90;;
50631;SDS011;49583;45.590;-122.498;2024-01-10T03:48:55;15.10;;;3.50;;
50631;SDS011;49583;45.590;-122.498;2024-01-10T03:51:07;15.00;;;3.30;;
50631;SDS011;49583;45.590;-122.498;2024-01-10T03:53:21;5.80;;;2.00;;
50631;SDS011;49583;45.590;-122.498;2024-01-10T03:55:33;12.50;;;2.80;;
50631;SDS011;49583;45.590;-122.498;2024-01-10T03:57:47;7.80;;;2.40;;
50631;SDS011;49583;45.590;-122.498;2024-01-10T04:00:00;11.50;;;3.00;;
50631;SDS011;49583;45.590;-122.498;2024-01-10T04:02:14;11.90;;;2.40;;
50631;SDS011;49583;45.590;-122.498;2024-01-10T04:04:27;10.20;;;2.40;;
50631;SDS011;49583;45.590;-122.498;2024-01-10T04:06:39;11.80;;;2.80;;
50631;SDS011;49583;45.590;-122.498;2024-01-10T04:08:52;8.40;;;2.00;;
50631;SDS011;49583;45.590;-122.498;2024-01-10T04:11:05;12.40;;;2.50;;
50631;SDS011;49583;45.590;-122.498;2024-01-10T04:13:18;13.70;;;2.40;;
50631;SDS011;49583;45.590;-122.498;2024-01-10T04:15:30;7.40;;;2.40;;
50631;SDS011;49583;45.590;-122.498;2024-01-10T04:17:44;6.20;;;2.50;;
50631;SDS011;49583;45.590;-122.498;2024-01-10T04:19:58;12.90;;;2.20;;
50631;SDS011;49583;45.590;-122.498;2024-01-10T04:22:11;5.90;;;1.60;;
50631;SDS011;49583;45.590;-122.498;2024-01-10T04:24:24;9.10;;;2.00;;
50631;SDS011;49583;45.590;-122.498;2024-01-10T04:26:37;5.00;;;1.90;;
50631;SDS011;49583;45.590;-122.498;2024-01-10T04:28:50;4.90;;;2.00;;
50631;SDS011;49583;45.590;-122.498;2024-01-10T04:31:02;6.50;;;1.70;;
50631;SDS011;49583;45.590;-122.498;2024-01-10T04:33:15;6.60;;;1.70;;
50631;SDS011;49583;45.590;-122.498;2024-01-10T04:35:28;4.80;;;1.50;;
50631;SDS011;49583;45.590;-122.498;2024-01-10T04:37:41;5.30;;;1.30;;
50631;SDS011;49583;45.590;-122.498;2024-01-10T04:39:54;4.00;;;1.30;;
50631;SDS011;49583;45.590;-122.498;2024-01-10T04:42:06;5.00;;;1.40;;
50631;SDS011;49583;45.590;-122.498;2024-01-10T04:44:20;4.10;;;1.00;;
50631;SDS011;49583;45.590;-122.498;2024-01-10T04:46:32;4.40;;;1.60;;
50631;SDS011;49583;45.590;-122.498;2024-01-10T04:48:45;5.20;;;1.20;;
50631;SDS011;49583;45.590;-122.498;2024-01-10T04:50:59;5.70;;;1.40;;
50631;SDS011;49583;45.590;-122.498;2024-01-10T04:53:11;4.80;;;1.20;;
50631;SDS011;49583;45.590;-122.498;2024-01-10T04:55:24;1.30;;;0.90;;
50631;SDS011;49583;45.590;-122.498;2024-01-10T04:57:37;2.00;;;1.00;;
50631;SDS011;49583;45.590;-122.498;2024-01-10T04:59:49;4.20;;;1.30;;
50631;SDS011;49583;45.590;-122.498;2024-01-10T05:02:01;5.00;;;0.70;;
50631;SDS011;49583;45.590;-122.498;2024-01-10T05:04:14;1.10;;;0.80;;
50631;SDS011;49583;45.590;-122.498;2024-01-10T05:06:27;1.00;;;0.80;;
50631;SDS011;49583;45.590;-122.498;2024-01-10T05:08:40;2.80;;;0.80;;
50631;SDS011;49583;45.590;-122.498;2024-01-10T05:10:54;2.30;;;0.90;;
50631;SDS011;49583;45.590;-122.498;2024-01-10T05:13:06;4.20;;;1.10;;
50631;SDS011;49583;45.590;-122.498;2024-01-10T05:15:19;1.20;;;0.70;;
50631;SDS011;49583;45.590;-122.498;2024-01-10T05:17:31;2.10;;;1.00;;
50631;SDS011;49583;45.590;-122.498;2024-01-10T05:19:44;1.10;;;0.70;;
50631;SDS011;49583;45.590;-122.498;2024-01-10T05:21:58;2.20;;;1.00;;
50631;SDS011;49583;45.590;-122.498;2024-01-10T05:24:12;0.90;;;0.80;;
50631;SDS011;49583;45.590;-122.498;2024-01-10T05:26:26;1.10;;;1.00;;
50631;SDS011;49583;45.590;-122.498;2024-01-10T05:28:38;0.80;;;0.80;;
50631;SDS011;49583;45.590;-122.498;2024-01-10T05:30:51;2.30;;;1.00;;
50631;SDS011;49583;45.590;-122.498;2024-01-10T05:33:04;2.80;;;1.00;;
50631;SDS011;49583;45.590;-122.498;2024-01-10T05:35:17;1.10;;;0.80;;
50631;SDS011;49583;45.590;-122.498;2024-01-10T05:37:29;1.50;;;0.90;;
50631;SDS011;49583;45.590;-122.498;2024-01-10T05:39:42;2.30;;;0.90;;
50631;SDS011;49583;45.590;-122.498;2024-01-10T05:41:55;1.10;;;0.70;;
50631;SDS011;49583;45.590;-122.498;2024-01-10T05:44:07;1.90;;;1.00;;
50631;SDS011;49583;45.590;-122.498;2024-01-10T05:46:21;1.00;;;0.80;;
50631;SDS011;49583;45.590;-122.498;2024-01-10T05:48:36;1.00;;;0.90;;
50631;SDS011;49583;45.590;-122.498;2024-01-10T05:50:48;1.20;;;1.10;;
50631;SDS011;49583;45.590;-122.498;2024-01-10T05:53:01;1.30;;;0.80;;
50631;SDS011;49583;45.590;-122.498;2024-01-10T05:55:16;1.60;;;0.90;;
50631;SDS011;49583;45.590;-122.498;2024-01-10T05:57:28;1.00;;;0.90;;
50631;SDS011;49583;45.590;-122.498;2024-01-10T05:59:41;2.40;;;0.90;;
50631;SDS011;49583;45.590;-122.498;2024-01-10T06:01:53;1.30;;;0.90;;
50631;SDS011;49583;45.590;-122.498;2024-01-10T06:04:06;0.90;;;0.90;;
50631;SDS011;49583;45.590;-122.498;2024-01-10T06:06:18;3.50;;;1.10;;
50631;SDS011;49583;45.590;-122.498;2024-01-10T06:08:31;1.00;;;0.90;;
50631;SDS011;49583;45.590;-122.498;2024-01-10T06:10:44;1.50;;;1.20;;
50631;SDS011;49583;45.590;-122.498;2024-01-10T06:12:58;1.10;;;1.00;;
50631;SDS011;49583;45.590;-122.498;2024-01-10T06:15:11;1.10;;;0.80;;
50631;SDS011;49583;45.590;-122.498;2024-01-10T06:17:24;1.80;;;1.00;;
50631;SDS011;49583;45.590;-122.498;2024-01-10T06:19:36;4.20;;;0.80;;
50631;SDS011;49583;45.590;-122.498;2024-01-10T06:21:49;0.80;;;0.80;;
50631;SDS011;49583;45.590;-122.498;2024-01-10T06:24:02;1.20;;;0.90;;
50631;SDS011;49583;45.590;-122.498;2024-01-10T06:26:15;2.40;;;0.90;;
50631;SDS011;49583;45.590;-122.498;2024-01-10T06:28:29;0.80;;;0.80;;
50631;SDS011;49583;45.590;-122.498;2024-01-10T06:30:42;1.20;;;0.90;;
50631;SDS011;49583;45.590;-122.498;2024-01-10T06:32:55;1.80;;;0.80;;
50631;SDS011;49583;45.590;-122.498;2024-01-10T06:35:09;1.00;;;0.80;;
50631;SDS011;49583;45.590;-122.498;2024-01-10T06:37:22;0.80;;;0.80;;
50631;SDS011;49583;45.590;-122.498;2024-01-10T06:39:35;2.20;;;0.80;;
50631;SDS011;49583;45.590;-122.498;2024-01-10T06:41:48;1.00;;;0.80;;
50631;SDS011;49583;45.590;-122.498;2024-01-10T06:44:01;3.70;;;1.40;;
50631;SDS011;49583;45.590;-122.498;2024-01-10T06:46:14;0.80;;;0.80;;
50631;SDS011;49583;45.590;-122.498;2024-01-10T06:48:26;1.30;;;0.80;;
50631;SDS011;49583;45.590;-122.498;2024-01-10T06:50:39;0.80;;;0.80;;
50631;SDS011;49583;45.590;-122.498;2024-01-10T06:52:52;1.20;;;1.10;;
50631;SDS011;49583;45.590;-122.498;2024-01-10T06:55:06;1.50;;;0.80;;
50631;SDS011;49583;45.590;-122.498;2024-01-10T06:57:19;1.40;;;1.30;;
50631;SDS011;49583;45.590;-122.498;2024-01-10T06:59:32;0.80;;;0.80;;
50631;SDS011;49583;45.590;-122.498;2024-01-10T07:01:44;0.80;;;0.80;;
50631;SDS011;49583;45.590;-122.498;2024-01-10T07:04:00;1.20;;;1.10;;
50631;SDS011;49583;45.590;-122.498;2024-01-10T07:06:13;0.80;;;0.80;;
50631;SDS011;49583;45.590;-122.498;2024-01-10T07:08:27;1.20;;;0.70;;
50631;SDS011;49583;45.590;-122.498;2024-01-10T07:10:39;0.90;;;0.80;;
50631;SDS011;49583;45.590;-122.498;2024-01-10T07:12:51;0.90;;;0.90;;
50631;SDS011;49583;45.590;-122.498;2024-01-10T07:15:06;1.20;;;0.90;;
50631;SDS011;49583;45.590;-122.498;2024-01-10T07:17:19;1.70;;;0.80;;
50631;SDS011;49583;45.590;-122.498;2024-01-10T07:19:32;1.20;;;0.80;;
50631;SDS011;49583;45.590;-122.498;2024-01-10T07:21:44;0.80;;;0.80;;
50631;SDS011;49583;45.590;-122.498;2024-01-10T07:23:57;0.90;;;0.90;;
50631;SDS011;49583;45.590;-122.498;2024-01-10T07:26:12;0.70;;;0.70;;
50631;SDS011;49583;45.590;-122.498;2024-01-10T07:28:26;0.90;;;0.90;;
50631;SDS011;49583;45.590;-122.498;2024-01-10T07:30:40;1.00;;;1.00;;
50631;SDS011;49583;45.590;-122.498;2024-01-10T07:32:52;0.80;;;0.70;;
50631;SDS011;49583;45.590;-122.498;2024-01-10T07:35:06;0.70;;;0.70;;
50631;SDS011;49583;45.590;-122.498;2024-01-10T07:37:20;0.60;;;0.60;;
50631;SDS011;49583;45.590;-122.498;2024-01-10T07:39:32;0.70;;;0.70;;
50631;SDS011;49583;45.590;-122.498;2024-01-10T07:41:45;1.30;;;0.70;;
50631;SDS011;49583;45.590;-122.498;2024-01-10T07:43:59;0.80;;;0.80;;
50631;SDS011;49583;45.590;-122.498;2024-01-10T07:46:12;0.80;;;0.70;;
50631;SDS011;49583;45.590;-122.498;2024-01-10T07:48:26;0.70;;;0.70;;
50631;SDS011;49583;45.590;-122.498;2024-01-10T07:50:39;0.60;;;0.60;;
50631;SDS011;49583;45.590;-122.498;2024-01-10T07:52:52;0.60;;;0.60;;
50631;SDS011;49583;45.590;-122.498;2024-01-10T07:55:05;0.70;;;0.70;;
50631;SDS011;49583;45.590;-122.498;2024-01-10T07:57:18;0.50;;;0.50;;
50631;SDS011;49583;45.590;-122.498;2024-01-10T07:59:32;0.60;;;0.60;;
50631;SDS011;49583;45.590;-122.498;2024-01-10T08:01:53;0.90;;;0.90;;
50631;SDS011;49583;45.590;-122.498;2024-01-10T08:04:06;1.00;;;1.00;;
50631;SDS011;49583;45.590;-122.498;2024-01-10T08:06:21;1.10;;;1.00;;
50631;SDS011;49583;45.590;-122.498;2024-01-10T08:08:39;1.10;;;0.90;;
50631;SDS011;49583;45.590;-122.498;2024-01-10T08:10:51;0.70;;;0.70;;
50631;SDS011;49583;45.590;-122.498;2024-01-10T08:13:05;0.80;;;0.80;;
50631;SDS011;49583;45.590;-122.498;2024-01-10T08:15:19;1.00;;;1.00;;
50631;SDS011;49583;45.590;-122.498;2024-01-10T08:17:31;0.90;;;0.90;;
50631;SDS011;49583;45.590;-122.498;2024-01-10T08:19:45;0.90;;;0.90;;
50631;SDS011;49583;45.590;-122.498;2024-01-10T08:21:57;1.00;;;1.00;;
50631;SDS011;49583;45.590;-122.498;2024-01-10T08:24:10;0.90;;;0.90;;
50631;SDS011;49583;45.590;-122.498;2024-01-10T08:26:22;0.90;;;0.90;;
50631;SDS011;49583;45.590;-122.498;2024-01-10T08:28:36;0.90;;;0.90;;
50631;SDS011;49583;45.590;-122.498;2024-01-10T08:30:48;1.20;;;0.80;;
50631;SDS011;49583;45.590;-122.498;2024-01-10T08:33:10;1.00;;;1.00;;
50631;SDS011;49583;45.590;-122.498;2024-01-10T08:35:22;1.00;;;1.00;;
50631;SDS011;49583;45.590;-122.498;2024-01-10T08:37:35;0.90;;;0.90;;
50631;SDS011;49583;45.590;-122.498;2024-01-10T08:39:49;1.20;;;1.10;;
50631;SDS011;49583;45.590;-122.498;2024-01-10T08:42:02;1.50;;;1.20;;
50631;SDS011;49583;45.590;-122.498;2024-01-10T08:44:17;1.40;;;1.30;;
50631;SDS011;49583;45.590;-122.498;2024-01-10T08:46:30;1.70;;;1.30;;
50631;SDS011;49583;45.590;-122.498;2024-01-10T08:48:43;1.20;;;1.20;;
50631;SDS011;49583;45.590;-122.498;2024-01-10T08:50:55;1.20;;;1.20;;
50631;SDS011;49583;45.590;-122.498;2024-01-10T08:53:08;0.90;;;0.90;;
50631;SDS011;49583;45.590;-122.498;2024-01-10T08:55:21;1.20;;;1.10;;
50631;SDS011;49583;45.590;-122.498;2024-01-10T08:57:33;0.90;;;0.90;;
50631;SDS011;49583;45.590;-122.498;2024-01-10T08:59:46;0.80;;;0.80;;
50631;SDS011;49583;45.590;-122.498;2024-01-10T09:01:59;1.10;;;1.10;;
50631;SDS011;49583;45.590;-122.498;2024-01-10T09:04:11;1.10;;;1.10;;
50631;SDS011;49583;45.590;-122.498;2024-01-10T09:06:24;2.10;;;2.00;;
50631;SDS011;49583;45.590;-122.498;2024-01-10T09:08:36;3.10;;;2.80;;
50631;SDS011;49583;45.590;-122.498;2024-01-10T09:10:49;3.20;;;2.80;;
50631;SDS011;49583;45.590;-122.498;2024-01-10T09:13:02;3.20;;;3.00;;
50631;SDS011;49583;45.590;-122.498;2024-01-10T09:15:16;3.50;;;3.20;;
50631;SDS011;49583;45.590;-122.498;2024-01-10T09:17:29;3.70;;;3.40;;
50631;SDS011;49583;45.590;-122.498;2024-01-10T09:19:42;4.40;;;4.00;;
50631;SDS011;49583;45.590;-122.498;2024-01-10T09:21:54;3.40;;;3.10;;
50631;SDS011;49583;45.590;-122.498;2024-01-10T09:24:07;3.50;;;3.20;;
50631;SDS011;49583;45.590;-122.498;2024-01-10T09:26:34;3.90;;;3.60;;
50631;SDS011;49583;45.590;-122.498;2024-01-10T09:28:47;3.80;;;3.50;;
50631;SDS011;49583;45.590;-122.498;2024-01-10T09:30:59;4.30;;;3.70;;
50631;SDS011;49583;45.590;-122.498;2024-01-10T09:33:15;3.70;;;3.50;;
50631;SDS011;49583;45.590;-122.498;2024-01-10T09:35:27;3.30;;;2.90;;
50631;SDS011;49583;45.590;-122.498;2024-01-10T09:37:40;3.40;;;3.10;;
50631;SDS011;49583;45.590;-122.498;2024-01-10T09:39:52;3.40;;;3.10;;
50631;SDS011;49583;45.590;-122.498;2024-01-10T09:42:06;3.90;;;3.60;;
50631;SDS011;49583;45.590;-122.498;2024-01-10T09:44:18;3.10;;;2.90;;
50631;SDS011;49583;45.590;-122.498;2024-01-10T09:46:33;3.20;;;2.90;;
50631;SDS011;49583;45.590;-122.498;2024-01-10T09:48:49;3.30;;;3.00;;
50631;SDS011;49583;45.590;-122.498;2024-01-10T09:51:06;3.20;;;2.90;;
50631;SDS011;49583;45.590;-122.498;2024-01-10T09:53:20;3.40;;;3.10;;
50631;SDS011;49583;45.590;-122.498;2024-01-10T09:55:35;3.10;;;2.80;;
50631;SDS011;49583;45.590;-122.498;2024-01-10T09:57:49;2.70;;;2.40;;
50631;SDS011;49583;45.590;-122.498;2024-01-10T10:00:02;3.60;;;3.30;;
50631;SDS011;49583;45.590;-122.498;2024-01-10T10:02:18;3.70;;;3.40;;
50631;SDS011;49583;45.590;-122.498;2024-01-10T10:04:32;5.00;;;2.90;;
50631;SDS011;49583;45.590;-122.498;2024-01-10T10:06:46;2.70;;;2.50;;
50631;SDS011;49583;45.590;-122.498;2024-01-10T10:09:09;3.10;;;2.50;;
50631;SDS011;49583;45.590;-122.498;2024-01-10T10:11:23;4.10;;;2.90;;
50631;SDS011;49583;45.590;-122.498;2024-01-10T10:13:37;2.00;;;1.90;;
50631;SDS011;49583;45.590;-122.498;2024-01-10T10:15:50;2.60;;;1.40;;
50631;SDS011;49583;45.590;-122.498;2024-01-10T10:18:13;2.00;;;1.60;;
50631;SDS011;49583;45.590;-122.498;2024-01-10T10:20:27;1.30;;;1.20;;
50631;SDS011;49583;45.590;-122.498;2024-01-10T10:22:41;1.50;;;1.40;;
50631;SDS011;49583;45.590;-122.498;2024-01-10T10:25:10;2.30;;;1.00;;
50631;SDS011;49583;45.590;-122.498;2024-01-10T10:27:25;1.90;;;1.20;;
50631;SDS011;49583;45.590;-122.498;2024-01-10T10:29:38;1.10;;;0.80;;
50631;SDS011;49583;45.590;-122.498;2024-01-10T10:31:54;2.90;;;0.70;;
50631;SDS011;49583;45.590;-122.498;2024-01-10T10:34:07;0.80;;;0.80;;
50631;SDS011;49583;45.590;-122.498;2024-01-10T10:36:21;3.00;;;1.30;;
50631;SDS011;49583;45.590;-122.498;2024-01-10T10:38:34;0.90;;;0.80;;
50631;SDS011;49583;45.590;-122.498;2024-01-10T10:40:47;1.30;;;0.70;;
50631;SDS011;49583;45.590;-122.498;2024-01-10T10:43:00;1.80;;;0.80;;
50631;SDS011;49583;45.590;-122.498;2024-01-10T10:45:20;0.80;;;0.80;;
50631;SDS011;49583;45.590;-122.498;2024-01-10T10:47:36;0.70;;;0.70;;
50631;SDS011;49583;45.590;-122.498;2024-01-10T10:49:53;1.50;;;0.90;;
50631;SDS011;49583;45.590;-122.498;2024-01-10T10:52:07;0.70;;;0.70;;
50631;SDS011;49583;45.590;-122.498;2024-01-10T10:54:20;0.70;;;0.70;;
50631;SDS011;49583;45.590;-122.498;2024-01-10T10:56:35;1.30;;;0.80;;
50631;SDS011;49583;45.590;-122.498;2024-01-10T10:58:50;2.10;;;0.90;;
50631;SDS011;49583;45.590;-122.498;2024-01-10T11:01:03;2.30;;;1.00;;
50631;SDS011;49583;45.590;-122.498;2024-01-10T11:03:16;0.90;;;0.90;;
50631;SDS011;49583;45.590;-122.498;2024-01-10T11:05:30;1.30;;;0.80;;
50631;SDS011;49583;45.590;-122.498;2024-01-10T11:07:44;1.30;;;0.80;;
50631;SDS011;49583;45.590;-122.498;2024-01-10T11:10:03;1.80;;;0.80;;
50631;SDS011;49583;45.590;-122.498;2024-01-10T11:12:23;2.20;;;1.10;;
50631;SDS011;49583;45.590;-122.498;2024-01-10T11:14:52;0.70;;;0.70;;
50631;SDS011;49583;45.590;-122.498;2024-01-10T11:20:21;0.80;;;0.80;;
50631;SDS011;49583;45.590;-122.498;2024-01-10T11:22:53;0.60;;;0.60;;
50631;SDS011;49583;45.590;-122.498;2024-01-10T11:27:28;2.20;;;0.70;;
50631;SDS011;49583;45.590;-122.498;2024-01-10T11:29:42;0.90;;;0.90;;
50631;SDS011;49583;45.590;-122.498;2024-01-10T11:31:55;1.00;;;0.90;;
50631;SDS011;49583;45.590;-122.498;2024-01-10T11:34:10;1.00;;;1.00;;
50631;SDS011;49583;45.590;-122.498;2024-01-10T11:36:22;1.00;;;0.80;;
50631;SDS011;49583;45.590;-122.498;2024-01-10T11:38:45;1.10;;;0.70;;
50631;SDS011;49583;45.590;-122.498;2024-01-10T11:41:04;3.30;;;0.90;;
50631;SDS011;49583;45.590;-122.498;2024-01-10T11:43:17;0.70;;;0.70;;
50631;SDS011;49583;45.590;-122.498;2024-01-10T11:48:14;2.20;;;0.90;;
50631;SDS011;49583;45.590;-122.498;2024-01-10T11:50:35;1.20;;;1.00;;
50631;SDS011;49583;45.590;-122.498;2024-01-10T11:52:47;3.20;;;0.80;;
50631;SDS011;49583;45.590;-122.498;2024-01-10T11:55:06;1.10;;;1.00;;
50631;SDS011;49583;45.590;-122.498;2024-01-10T11:57:22;1.10;;;1.00;;
50631;SDS011;49583;45.590;-122.498;2024-01-10T11:59:37;2.10;;;0.90;;
50631;SDS011;49583;45.590;-122.498;2024-01-10T12:01:50;1.40;;;1.10;;
50631;SDS011;49583;45.590;-122.498;2024-01-10T12:04:04;0.80;;;0.80;;
50631;SDS011;49583;45.590;-122.498;2024-01-10T12:06:29;1.00;;;0.70;;
50631;SDS011;49583;45.590;-122.498;2024-01-10T12:08:42;1.20;;;1.10;;
50631;SDS011;49583;45.590;-122.498;2024-01-10T12:10:55;1.40;;;0.80;;
50631;SDS011;49583;45.590;-122.498;2024-01-10T12:13:08;1.20;;;0.90;;
50631;SDS011;49583;45.590;-122.498;2024-01-10T12:15:21;1.70;;;0.80;;
50631;SDS011;49583;45.590;-122.498;2024-01-10T12:17:35;2.90;;;1.10;;
50631;SDS011;49583;45.590;-122.498;2024-01-10T12:19:48;2.10;;;0.60;;
50631;SDS011;49583;45.590;-122.498;2024-01-10T12:22:01;0.90;;;0.90;;
50631;SDS011;49583;45.590;-122.498;2024-01-10T12:24:15;1.50;;;0.90;;
50631;SDS011;49583;45.590;-122.498;2024-01-10T12:26:27;1.10;;;0.70;;
50631;SDS011;49583;45.590;-122.498;2024-01-10T12:28:40;4.50;;;1.00;;
50631;SDS011;49583;45.590;-122.498;2024-01-10T12:31:06;1.40;;;0.90;;
50631;SDS011;49583;45.590;-122.498;2024-01-10T12:33:19;3.00;;;0.90;;
50631;SDS011;49583;45.590;-122.498;2024-01-10T12:35:34;1.50;;;1.10;;
50631;SDS011;49583;45.590;-122.498;2024-01-10T12:37:55;2.30;;;0.90;;
50631;SDS011;49583;45.590;-122.498;2024-01-10T12:40:09;1.50;;;0.80;;
50631;SDS011;49583;45.590;-122.498;2024-01-10T12:42:22;0.80;;;0.60;;
50631;SDS011;49583;45.590;-122.498;2024-01-10T12:44:35;2.40;;;0.90;;
50631;SDS011;49583;45.590;-122.498;2024-01-10T12:46:53;2.00;;;1.00;;
50631;SDS011;49583;45.590;-122.498;2024-01-10T12:49:06;3.40;;;1.00;;
50631;SDS011;49583;45.590;-122.498;2024-01-10T12:51:19;4.00;;;1.40;;
50631;SDS011;49583;45.590;-122.498;2024-01-10T12:53:31;2.20;;;0.80;;
50631;SDS011;49583;45.590;-122.498;2024-01-10T12:55:45;1.10;;;1.50;;
50631;SDS011;49583;45.590;-122.498;2024-01-10T12:57:58;3.20;;;2.20;;